createdAt,value
2023-02-11T00:00:23.065Z,27.64
2023-02-11T00:00:59.104Z,27.78
2023-02-11T00:01:35.495Z,27.74
2023-02-11T00:02:11.888Z,27.67
2023-02-11T00:02:48.201Z,27.77
2023-02-11T00:03:24.091Z,27.75
2023-02-11T00:04:00.382Z,27.64
2023-02-11T00:04:36.477Z,27.70
2023-02-11T00:05:12.076Z,27.63
2023-02-11T00:05:48.858Z,27.80
2023-02-11T00:06:24.301Z,27.58
2023-02-11T00:07:00.330Z,27.61
2023-02-11T00:07:36.460Z,27.81
2023-02-11T00:08:12.880Z,27.67
2023-02-11T00:08:48.939Z,27.74
2023-02-11T00:09:25.268Z,27.74
2023-02-11T00:10:00.822Z,27.66
2023-02-11T00:10:36.422Z,27.63
2023-02-11T00:11:12.814Z,27.56
2023-02-11T00:11:48.592Z,27.66
2023-02-11T00:12:24.772Z,27.71
2023-02-11T00:13:00.579Z,27.64
2023-02-11T00:13:36.581Z,27.75
2023-02-11T00:14:12.413Z,27.73
2023-02-11T00:14:48.686Z,27.76
2023-02-11T00:15:24.228Z,27.77
2023-02-11T00:15:59.677Z,27.58
2023-02-11T00:16:35.909Z,27.74
2023-02-11T00:17:12.286Z,27.67
2023-02-11T00:17:48.346Z,27.81
2023-02-11T00:18:24.580Z,27.77
2023-02-11T00:19:01.185Z,27.78
2023-02-11T00:19:37.011Z,27.88
2023-02-11T00:20:13.464Z,27.78
2023-02-11T00:20:49.065Z,27.59
2023-02-11T00:21:24.234Z,27.80
2023-02-11T00:22:01.302Z,27.62
2023-02-11T00:22:38.033Z,27.81
2023-02-11T00:23:13.787Z,27.63
2023-02-11T00:23:49.531Z,27.73
2023-02-11T00:24:25.134Z,27.73
2023-02-11T00:25:00.900Z,27.74
2023-02-11T00:25:37.187Z,27.65
2023-02-11T00:26:13.556Z,27.85
2023-02-11T00:26:49.293Z,27.91
2023-02-11T00:27:25.319Z,27.97
2023-02-11T00:28:01.645Z,27.88
2023-02-11T00:28:37.725Z,27.99
2023-02-11T00:29:13.086Z,27.90
2023-02-11T00:29:49.206Z,27.90
2023-02-11T00:30:25.865Z,27.97
2023-02-11T00:31:02.537Z,27.76
2023-02-11T00:31:38.926Z,27.92
2023-02-11T00:32:14.635Z,27.90
2023-02-11T00:32:50.926Z,27.90
2023-02-11T00:33:26.831Z,27.65
2023-02-11T00:34:02.521Z,28.10
2023-02-11T00:34:38.360Z,28.05
2023-02-11T00:35:14.003Z,27.99
2023-02-11T00:35:50.593Z,27.88
2023-02-11T00:36:26.448Z,28.14
2023-02-11T00:37:02.455Z,28.17
2023-02-11T00:37:38.757Z,28.19
2023-02-11T00:38:14.671Z,28.00
2023-02-11T00:38:50.813Z,28.14
2023-02-11T00:39:26.232Z,27.93
2023-02-11T00:40:03.275Z,27.87
2023-02-11T00:40:40.591Z,27.98
2023-02-11T00:41:16.659Z,28.05
2023-02-11T00:41:53.093Z,28.03
2023-02-11T00:42:29.369Z,28.04
2023-02-11T00:43:05.778Z,28.05
2023-02-11T00:43:42.042Z,27.99
2023-02-11T00:44:18.048Z,28.03
2023-02-11T00:44:53.645Z,27.85
2023-02-11T00:45:30.876Z,27.97
2023-02-11T00:46:09.196Z,27.96
2023-02-11T00:46:45.264Z,27.94
2023-02-11T00:47:21.684Z,27.93
2023-02-11T00:47:58.110Z,27.85
2023-02-11T00:48:33.853Z,27.87
2023-02-11T00:49:10.229Z,27.81
2023-02-11T00:49:46.438Z,27.88
2023-02-11T00:50:22.045Z,27.98
2023-02-11T00:50:58.182Z,27.94
2023-02-11T00:51:34.556Z,27.85
2023-02-11T00:52:10.548Z,27.93
2023-02-11T00:52:46.992Z,27.87
2023-02-11T00:53:23.719Z,27.80
2023-02-11T00:53:59.895Z,27.87
2023-02-11T00:54:35.853Z,27.90
2023-02-11T00:55:11.665Z,27.83
2023-02-11T00:55:47.267Z,27.70
2023-02-11T00:56:23.265Z,27.95
2023-02-11T00:56:59.729Z,27.84
2023-02-11T00:57:35.563Z,27.90
2023-02-11T00:58:11.922Z,27.87
2023-02-11T00:58:48.160Z,27.96
2023-02-11T00:59:24.125Z,27.99
2023-02-11T01:00:00.180Z,27.89
2023-02-11T01:00:41.025Z,28.04
2023-02-11T01:01:16.821Z,27.86
2023-02-11T01:01:53.300Z,27.91
2023-02-11T01:02:29.495Z,28.01
2023-02-11T01:03:06.058Z,27.97
2023-02-11T01:03:42.126Z,27.96
2023-02-11T01:04:18.316Z,27.97
2023-02-11T01:04:54.385Z,27.88
2023-02-11T01:05:30.535Z,27.96
2023-02-11T01:06:06.045Z,27.95
2023-02-11T01:06:41.740Z,27.93
2023-02-11T01:07:18.593Z,27.81
2023-02-11T01:07:54.621Z,27.93
2023-02-11T01:08:30.797Z,27.74
2023-02-11T01:09:06.699Z,27.89
2023-02-11T01:09:42.851Z,27.88
2023-02-11T01:10:19.541Z,27.87
2023-02-11T01:10:55.610Z,27.97
2023-02-11T01:11:31.245Z,27.91
2023-02-11T01:12:06.618Z,27.79
2023-02-11T01:12:43.046Z,27.87
2023-02-11T01:13:19.211Z,28.00
2023-02-11T01:13:54.562Z,28.04
2023-02-11T01:14:29.944Z,27.97
2023-02-11T01:15:06.733Z,27.76
2023-02-11T01:15:43.408Z,27.92
2023-02-11T01:16:19.856Z,27.93
2023-02-11T01:16:56.111Z,27.88
2023-02-11T01:17:32.027Z,27.88
2023-02-11T01:18:07.843Z,27.80
2023-02-11T01:18:44.318Z,27.81
2023-02-11T01:19:20.301Z,27.95
2023-02-11T01:19:55.466Z,27.89
2023-02-11T01:20:31.689Z,27.93
2023-02-11T01:21:07.359Z,27.84
2023-02-11T01:21:43.379Z,27.90
2023-02-11T01:22:19.803Z,27.95
2023-02-11T01:22:55.745Z,27.85
2023-02-11T01:23:32.093Z,27.97
2023-02-11T01:24:08.541Z,27.81
2023-02-11T01:24:44.136Z,27.95
2023-02-11T01:25:19.608Z,27.97
2023-02-11T01:25:55.783Z,27.74
2023-02-11T01:26:31.591Z,28.01
2023-02-11T01:27:07.653Z,27.87
2023-02-11T01:27:43.561Z,27.87
2023-02-11T01:28:19.655Z,27.97
2023-02-11T01:28:55.937Z,27.95
2023-02-11T01:29:31.673Z,27.92
2023-02-11T01:30:06.920Z,27.99
2023-02-11T01:30:42.964Z,27.99
2023-02-11T01:31:19.469Z,27.87
2023-02-11T01:31:55.563Z,27.96
2023-02-11T01:32:31.479Z,27.94
2023-02-11T01:33:07.162Z,27.78
2023-02-11T01:33:43.489Z,27.93
2023-02-11T01:34:19.388Z,27.80
2023-02-11T01:34:55.525Z,27.93
2023-02-11T01:35:30.942Z,27.85
2023-02-11T01:36:07.332Z,28.05
2023-02-11T01:36:43.282Z,27.98
2023-02-11T01:37:20.160Z,27.88
2023-02-11T01:37:55.695Z,27.98
2023-02-11T01:38:31.398Z,28.01
2023-02-11T01:39:07.692Z,27.97
2023-02-11T01:39:43.918Z,27.90
2023-02-11T01:40:20.020Z,27.94
2023-02-11T01:40:56.232Z,27.99
2023-02-11T01:41:32.764Z,27.90
2023-02-11T01:42:09.116Z,28.06
2023-02-11T01:42:45.207Z,27.93
2023-02-11T01:43:20.751Z,27.84
2023-02-11T01:43:56.079Z,27.89
2023-02-11T01:44:33.300Z,28.03
2023-02-11T01:45:08.895Z,27.88
2023-02-11T01:45:45.106Z,27.80
2023-02-11T01:46:21.571Z,27.84
2023-02-11T01:46:57.526Z,27.97
2023-02-11T01:47:33.554Z,27.96
2023-02-11T01:48:09.128Z,27.83
2023-02-11T01:48:44.835Z,28.04
2023-02-11T01:49:20.819Z,27.69
2023-02-11T01:49:56.808Z,27.89
2023-02-11T01:50:33.098Z,27.91
2023-02-11T01:51:08.756Z,27.91
2023-02-11T01:51:45.053Z,27.91
2023-02-11T01:52:21.093Z,27.84
2023-02-11T01:52:56.846Z,27.97
2023-02-11T01:53:32.634Z,28.01
2023-02-11T01:54:08.363Z,27.92
2023-02-11T01:54:44.626Z,27.76
2023-02-11T01:55:21.197Z,27.90
2023-02-11T01:55:57.381Z,27.84
2023-02-11T01:56:33.285Z,28.02
2023-02-11T01:57:08.850Z,27.95
2023-02-11T01:57:45.068Z,28.04
2023-02-11T01:58:20.903Z,27.96
2023-02-11T01:58:56.851Z,27.87
2023-02-11T01:59:32.821Z,27.76
2023-02-11T02:00:08.957Z,27.98
2023-02-11T02:00:45.012Z,28.00
2023-02-11T02:01:21.470Z,27.97
2023-02-11T02:01:57.395Z,27.98
2023-02-11T02:02:33.616Z,28.01
2023-02-11T02:03:08.951Z,28.05
2023-02-11T02:03:44.645Z,28.09
2023-02-11T02:04:20.544Z,28.00
2023-02-11T02:04:56.132Z,27.97
2023-02-11T02:05:32.510Z,27.99
2023-02-11T02:06:08.668Z,28.11
2023-02-11T02:06:44.737Z,27.93
2023-02-11T02:07:20.885Z,28.05
2023-02-11T02:07:56.750Z,27.93
2023-02-11T02:08:32.363Z,27.88
2023-02-11T02:09:08.848Z,27.96
2023-02-11T02:09:44.773Z,27.93
2023-02-11T02:10:20.782Z,27.90
2023-02-11T02:10:57.280Z,28.22
2023-02-11T02:11:33.311Z,27.97
2023-02-11T02:12:09.340Z,27.88
2023-02-11T02:12:45.351Z,27.96
2023-02-11T02:13:21.140Z,27.97
2023-02-11T02:13:56.489Z,27.95
2023-02-11T02:14:32.109Z,27.99
2023-02-11T02:15:07.501Z,27.89
2023-02-11T02:15:44.113Z,28.03
2023-02-11T02:16:20.182Z,27.98
2023-02-11T02:16:56.043Z,27.89
2023-02-11T02:17:31.895Z,28.01
2023-02-11T02:18:08.304Z,27.90
2023-02-11T02:18:44.279Z,27.91
2023-02-11T02:19:20.338Z,27.95
2023-02-11T02:19:56.113Z,27.95
2023-02-11T02:20:31.728Z,27.95
2023-02-11T02:21:07.426Z,27.84
2023-02-11T02:21:43.591Z,28.03
2023-02-11T02:22:19.365Z,27.90
2023-02-11T02:22:55.488Z,28.05
2023-02-11T02:23:32.150Z,27.95
2023-02-11T02:24:08.584Z,28.00
2023-02-11T02:24:44.546Z,28.00
2023-02-11T02:25:20.187Z,27.99
2023-02-11T02:25:56.519Z,27.90
2023-02-11T02:26:33.262Z,28.13
2023-02-11T02:27:09.037Z,27.88
2023-02-11T02:27:45.069Z,28.01
2023-02-11T02:28:20.730Z,27.91
2023-02-11T02:28:56.690Z,27.90
2023-02-11T02:29:32.536Z,28.07
2023-02-11T02:30:08.167Z,27.98
2023-02-11T02:30:43.990Z,27.98
2023-02-11T02:31:20.010Z,28.09
2023-02-11T02:31:56.479Z,27.88
2023-02-11T02:32:32.524Z,28.01
2023-02-11T02:33:21.971Z,27.80
2023-02-11T02:33:57.889Z,28.06
2023-02-11T02:34:33.921Z,28.10
2023-02-11T02:35:09.115Z,27.88
2023-02-11T02:35:45.545Z,27.96
2023-02-11T02:36:21.669Z,28.00
2023-02-11T02:36:57.865Z,27.92
2023-02-11T02:37:33.539Z,28.03
2023-02-11T02:38:09.966Z,28.05
2023-02-11T02:38:45.645Z,27.98
2023-02-11T02:39:21.783Z,28.06
2023-02-11T02:39:57.392Z,27.78
2023-02-11T02:40:33.088Z,28.10
2023-02-11T02:41:08.778Z,28.09
2023-02-11T02:41:45.574Z,28.06
2023-02-11T02:42:21.497Z,27.95
2023-02-11T02:42:57.483Z,28.06
2023-02-11T02:43:32.898Z,28.01
2023-02-11T02:44:08.518Z,28.01
2023-02-11T02:44:44.242Z,27.92
2023-02-11T02:45:19.872Z,28.01
2023-02-11T02:45:56.267Z,27.90
2023-02-11T02:46:32.337Z,28.03
2023-02-11T02:47:08.250Z,28.02
2023-02-11T02:47:44.453Z,28.00
2023-02-11T02:48:20.565Z,28.03
2023-02-11T02:48:56.704Z,27.98
2023-02-11T02:49:32.394Z,27.95
2023-02-11T02:50:08.319Z,28.00
2023-02-11T02:50:43.969Z,28.03
2023-02-11T02:51:20.053Z,28.01
2023-02-11T02:51:55.601Z,28.05
2023-02-11T02:52:31.950Z,28.01
2023-02-11T02:53:07.976Z,27.82
2023-02-11T02:53:43.608Z,27.96
2023-02-11T02:54:19.649Z,28.04
2023-02-11T02:54:55.862Z,27.81
2023-02-11T02:55:31.597Z,28.03
2023-02-11T02:56:07.853Z,27.93
2023-02-11T02:56:44.507Z,28.00
2023-02-11T02:57:20.507Z,28.09
2023-02-11T02:57:56.033Z,27.92
2023-02-11T02:58:32.504Z,28.05
2023-02-11T02:59:08.756Z,27.96
2023-02-11T02:59:44.341Z,27.98
2023-02-11T03:00:20.266Z,28.10
2023-02-11T03:00:55.704Z,28.05
2023-02-11T03:01:31.851Z,27.99
2023-02-11T03:02:07.426Z,28.13
2023-02-11T03:02:44.102Z,28.07
2023-02-11T03:03:20.183Z,28.07
2023-02-11T03:03:56.186Z,28.04
2023-02-11T03:04:32.272Z,28.00
2023-02-11T03:05:08.953Z,28.00
2023-02-11T03:05:45.088Z,27.95
2023-02-11T03:06:20.760Z,28.04
2023-02-11T03:06:56.497Z,27.99
2023-02-11T03:07:32.872Z,27.94
2023-02-11T03:08:08.820Z,28.05
2023-02-11T03:08:45.104Z,27.93
2023-02-11T03:09:21.079Z,28.06
2023-02-11T03:09:57.033Z,27.95
2023-02-11T03:10:33.105Z,27.97
2023-02-11T03:11:08.944Z,28.05
2023-02-11T03:11:44.578Z,28.03
2023-02-11T03:12:21.101Z,27.93
2023-02-11T03:12:57.208Z,27.88
2023-02-11T03:13:33.244Z,28.02
2023-02-11T03:14:09.566Z,28.08
2023-02-11T03:14:45.457Z,28.03
2023-02-11T03:15:22.178Z,27.98
2023-02-11T03:15:57.997Z,28.05
2023-02-11T03:16:33.945Z,28.01
2023-02-11T03:17:09.660Z,28.18
2023-02-11T03:17:45.485Z,27.97
2023-02-11T03:18:21.529Z,28.12
2023-02-11T03:18:57.446Z,28.03
2023-02-11T03:19:33.472Z,28.00
2023-02-11T03:20:09.613Z,28.12
2023-02-11T03:20:45.920Z,28.05
2023-02-11T03:21:21.816Z,28.07
2023-02-11T03:21:57.659Z,28.07
2023-02-11T03:22:33.382Z,28.09
2023-02-11T03:23:10.214Z,28.03
2023-02-11T03:23:45.896Z,27.97
2023-02-11T03:24:22.020Z,28.14
2023-02-11T03:24:57.791Z,28.03
2023-02-11T03:25:33.519Z,28.14
2023-02-11T03:26:09.616Z,28.08
2023-02-11T03:26:45.892Z,28.09
2023-02-11T03:27:21.950Z,28.03
2023-02-11T03:27:57.748Z,28.00
2023-02-11T03:28:34.388Z,28.04
2023-02-11T03:29:10.483Z,28.12
2023-02-11T03:29:46.400Z,28.00
2023-02-11T03:30:22.122Z,28.11
2023-02-11T03:30:57.850Z,27.95
2023-02-11T03:31:34.127Z,28.07
2023-02-11T03:32:10.391Z,27.81
2023-02-11T03:32:46.169Z,27.93
2023-02-11T03:33:22.104Z,28.00
2023-02-11T03:33:58.909Z,27.97
2023-02-11T03:34:35.129Z,28.06
2023-02-11T03:35:11.478Z,28.05
2023-02-11T03:35:47.200Z,28.12
2023-02-11T03:36:22.273Z,27.95
2023-02-11T03:36:58.568Z,28.08
2023-02-11T03:37:34.652Z,28.12
2023-02-11T03:38:11.376Z,28.06
2023-02-11T03:38:47.293Z,28.09
2023-02-11T03:39:23.586Z,28.09
2023-02-11T03:39:59.415Z,28.12
2023-02-11T03:40:35.255Z,28.14
2023-02-11T03:41:11.070Z,27.88
2023-02-11T03:41:46.554Z,28.09
2023-02-11T03:42:22.592Z,28.09
2023-02-11T03:42:58.357Z,28.02
2023-02-11T03:43:34.429Z,28.06
2023-02-11T03:44:10.524Z,28.00
2023-02-11T03:44:46.892Z,28.05
2023-02-11T03:45:22.325Z,28.06
2023-02-11T03:45:58.015Z,27.97
2023-02-11T03:46:34.040Z,28.09
2023-02-11T03:47:10.326Z,28.12
2023-02-11T03:47:46.301Z,28.10
2023-02-11T03:48:21.984Z,28.18
2023-02-11T03:48:57.979Z,28.19
2023-02-11T03:49:33.975Z,28.19
2023-02-11T03:50:09.945Z,28.11
2023-02-11T03:50:45.203Z,28.20
2023-02-11T03:51:21.360Z,28.08
2023-02-11T03:51:57.256Z,28.12
2023-02-11T03:52:33.530Z,27.99
2023-02-11T03:53:09.689Z,27.97
2023-02-11T03:53:45.778Z,28.16
2023-02-11T03:54:22.031Z,28.12
2023-02-11T03:54:57.651Z,28.25
2023-02-11T03:55:33.882Z,27.97
2023-02-11T03:56:09.434Z,27.98
2023-02-11T03:56:45.169Z,28.14
2023-02-11T03:57:21.518Z,28.04
2023-02-11T03:57:57.902Z,28.11
2023-02-11T03:58:33.970Z,28.22
2023-02-11T03:59:09.906Z,28.08
2023-02-11T03:59:45.618Z,28.23
2023-02-11T04:00:21.494Z,28.08
2023-02-11T04:00:57.596Z,27.98
2023-02-11T04:01:33.005Z,28.13
2023-02-11T04:02:09.407Z,27.95
2023-02-11T04:02:45.537Z,27.95
2023-02-11T04:03:21.843Z,28.27
2023-02-11T04:03:58.374Z,28.31
2023-02-11T04:04:34.381Z,28.21
2023-02-11T04:05:09.917Z,28.11
2023-02-11T04:05:45.986Z,28.21
2023-02-11T04:06:22.050Z,28.22
2023-02-11T04:06:57.619Z,28.06
2023-02-11T04:07:33.388Z,28.18
2023-02-11T04:08:09.728Z,28.15
2023-02-11T04:08:45.570Z,28.22
2023-02-11T04:09:22.098Z,28.21
2023-02-11T04:09:58.333Z,28.22
2023-02-11T04:10:35.027Z,28.12
2023-02-11T04:11:11.351Z,28.05
2023-02-11T04:11:46.934Z,28.15
2023-02-11T04:12:22.501Z,28.15
2023-02-11T04:12:57.821Z,28.13
2023-02-11T04:13:34.082Z,28.15
2023-02-11T04:14:10.197Z,28.10
2023-02-11T04:14:46.388Z,28.25
2023-02-11T04:15:22.576Z,28.17
2023-02-11T04:15:58.196Z,28.17
2023-02-11T04:16:34.561Z,28.14
2023-02-11T04:17:10.113Z,28.13
2023-02-11T04:17:45.719Z,27.97
2023-02-11T04:18:21.709Z,28.06
2023-02-11T04:18:57.642Z,28.07
2023-02-11T04:19:34.129Z,28.16
2023-02-11T04:20:10.254Z,28.13
2023-02-11T04:20:45.736Z,28.22
2023-02-11T04:21:21.493Z,28.16
2023-02-11T04:21:57.862Z,28.16
2023-02-11T04:22:34.086Z,28.18
2023-02-11T04:23:09.782Z,28.06
2023-02-11T04:23:45.928Z,28.09
2023-02-11T04:24:22.146Z,28.21
2023-02-11T04:24:58.407Z,28.12
2023-02-11T04:25:33.932Z,28.24
2023-02-11T04:26:09.662Z,28.16
2023-02-11T04:26:45.699Z,28.21
2023-02-11T04:27:21.951Z,28.29
2023-02-11T04:27:58.096Z,28.21
2023-02-11T04:28:34.402Z,28.15
2023-02-11T04:29:10.082Z,28.00
2023-02-11T04:29:46.679Z,28.14
2023-02-11T04:30:22.879Z,28.09
2023-02-11T04:30:59.003Z,28.24
2023-02-11T04:31:34.490Z,28.14
2023-02-11T04:32:11.157Z,28.23
2023-02-11T04:32:47.285Z,28.18
2023-02-11T04:33:23.681Z,28.18
2023-02-11T04:33:59.640Z,28.21
2023-02-11T04:34:35.864Z,28.17
2023-02-11T04:35:11.983Z,28.19
2023-02-11T04:35:47.491Z,28.15
2023-02-11T04:36:24.052Z,28.31
2023-02-11T04:36:59.539Z,28.25
2023-02-11T04:37:35.528Z,28.26
2023-02-11T04:38:11.503Z,28.18
2023-02-11T04:38:47.485Z,28.24
2023-02-11T04:39:23.867Z,28.22
2023-02-11T04:39:59.770Z,28.22
2023-02-11T04:40:35.799Z,28.23
2023-02-11T04:41:12.325Z,28.22
2023-02-11T04:41:48.085Z,28.18
2023-02-11T04:42:23.783Z,28.17
2023-02-11T04:43:00.085Z,28.17
2023-02-11T04:43:36.065Z,28.13
2023-02-11T04:44:12.088Z,28.01
2023-02-11T04:44:47.696Z,28.18
2023-02-11T04:45:23.876Z,28.15
2023-02-11T04:46:00.045Z,28.26
2023-02-11T04:46:36.639Z,28.22
2023-02-11T04:47:12.116Z,28.21
2023-02-11T04:47:47.786Z,28.21
2023-02-11T04:48:23.770Z,28.19
2023-02-11T04:48:59.459Z,28.22
2023-02-11T04:49:36.014Z,28.17
2023-02-11T04:50:12.751Z,28.18
2023-02-11T04:50:48.952Z,28.29
2023-02-11T04:51:25.437Z,28.18
2023-02-11T04:52:01.313Z,28.16
2023-02-11T04:52:37.132Z,28.25
2023-02-11T04:53:12.454Z,28.23
2023-02-11T04:53:48.418Z,28.39
2023-02-11T04:54:24.244Z,28.29
2023-02-11T04:55:00.503Z,28.13
2023-02-11T04:55:36.946Z,28.24
2023-02-11T04:56:12.982Z,28.44
2023-02-11T04:56:48.634Z,28.25
2023-02-11T04:57:25.068Z,28.30
2023-02-11T04:58:01.027Z,28.31
2023-02-11T04:58:36.631Z,28.34
2023-02-11T04:59:12.357Z,28.27
2023-02-11T04:59:48.526Z,28.26
2023-02-11T05:00:24.676Z,28.25
2023-02-11T05:01:00.562Z,28.17
2023-02-11T05:01:36.613Z,28.24
2023-02-11T05:02:12.300Z,28.26
2023-02-11T05:02:48.929Z,28.63
2023-02-11T05:03:24.704Z,28.27
2023-02-11T05:04:00.064Z,28.17
2023-02-11T05:04:36.226Z,28.32
2023-02-11T05:05:12.192Z,28.07
2023-02-11T05:05:48.069Z,28.39
2023-02-11T05:06:24.005Z,28.18
2023-02-11T05:07:00.082Z,28.14
2023-02-11T05:07:36.320Z,28.30
2023-02-11T05:08:12.208Z,28.29
2023-02-11T05:08:48.082Z,28.42
2023-02-11T05:09:23.626Z,28.27
2023-02-11T05:10:00.283Z,28.24
2023-02-11T05:10:36.738Z,28.27
2023-02-11T05:11:12.354Z,28.39
2023-02-11T05:11:48.684Z,28.25
2023-02-11T05:12:24.448Z,28.31
2023-02-11T05:13:01.023Z,28.32
2023-02-11T05:13:37.078Z,28.28
2023-02-11T05:14:12.818Z,28.30
2023-02-11T05:14:48.258Z,28.21
2023-02-11T05:15:24.298Z,28.32
2023-02-11T05:16:00.534Z,28.18
2023-02-11T05:16:37.178Z,28.24
2023-02-11T05:17:12.986Z,28.27
2023-02-11T05:17:48.891Z,28.33
2023-02-11T05:18:24.868Z,28.38
2023-02-11T05:19:01.615Z,28.36
2023-02-11T05:19:37.290Z,28.30
2023-02-11T05:20:13.068Z,28.49
2023-02-11T05:20:49.244Z,28.24
2023-02-11T05:21:25.268Z,28.34
2023-02-11T05:22:03.360Z,28.44
2023-02-11T05:22:38.910Z,28.35
2023-02-11T05:23:14.683Z,28.35
2023-02-11T05:23:51.499Z,28.42
2023-02-11T05:24:27.828Z,28.28
2023-02-11T05:25:04.016Z,28.31
2023-02-11T05:25:39.493Z,28.35
2023-02-11T05:26:15.496Z,28.33
2023-02-11T05:26:51.570Z,28.33
2023-02-11T05:27:27.703Z,28.29
2023-02-11T05:28:03.406Z,28.22
2023-02-11T05:28:39.767Z,28.24
2023-02-11T05:29:15.237Z,28.18
2023-02-11T05:29:51.412Z,28.41
2023-02-11T05:30:26.983Z,28.35
2023-02-11T05:31:02.230Z,28.27
2023-02-11T05:31:38.294Z,28.26
2023-02-11T05:32:14.328Z,28.33
2023-02-11T05:32:50.152Z,28.24
2023-02-11T05:33:26.522Z,28.37
2023-02-11T05:34:02.273Z,28.38
2023-02-11T05:34:38.156Z,28.35
2023-02-11T05:35:14.207Z,28.30
2023-02-11T05:35:50.321Z,28.33
2023-02-11T05:36:25.488Z,28.39
2023-02-11T05:37:02.094Z,28.21
2023-02-11T05:37:37.837Z,28.31
2023-02-11T05:38:13.882Z,28.07
2023-02-11T05:38:50.248Z,28.38
2023-02-11T05:39:26.232Z,28.32
2023-02-11T05:40:02.580Z,28.38
2023-02-11T05:40:38.604Z,28.34
2023-02-11T05:41:14.254Z,28.35
2023-02-11T05:41:49.148Z,28.46
2023-02-11T05:42:24.843Z,28.22
2023-02-11T05:43:01.534Z,28.32
2023-02-11T05:43:38.207Z,28.25
2023-02-11T05:44:14.491Z,28.31
2023-02-11T05:44:50.774Z,28.40
2023-02-11T05:45:26.711Z,28.39
2023-02-11T05:46:03.113Z,28.40
2023-02-11T05:46:38.361Z,28.49
2023-02-11T05:47:13.969Z,28.35
2023-02-11T05:47:49.855Z,28.28
2023-02-11T05:48:25.835Z,28.31
2023-02-11T05:49:01.722Z,28.23
2023-02-11T05:49:37.736Z,28.38
2023-02-11T05:50:14.074Z,28.43
2023-02-11T05:50:50.060Z,28.48
2023-02-11T05:51:26.135Z,28.43
2023-02-11T05:52:02.395Z,28.31
2023-02-11T05:52:37.669Z,28.43
2023-02-11T05:53:13.541Z,28.39
2023-02-11T05:53:49.336Z,28.36
2023-02-11T05:54:25.497Z,28.40
2023-02-11T05:55:01.260Z,28.38
2023-02-11T05:55:38.022Z,28.40
2023-02-11T05:56:14.024Z,28.39
2023-02-11T05:56:49.460Z,28.39
2023-02-11T05:57:25.133Z,28.30
2023-02-11T05:58:00.868Z,28.39
2023-02-11T05:58:37.746Z,28.41
2023-02-11T05:59:13.585Z,28.35
2023-02-11T05:59:49.555Z,28.48
2023-02-11T06:00:25.707Z,28.42
2023-02-11T06:01:01.713Z,28.36
2023-02-11T06:01:37.473Z,28.57
2023-02-11T06:02:12.768Z,28.44
2023-02-11T06:02:48.999Z,28.44
2023-02-11T06:03:24.796Z,28.27
2023-02-11T06:04:00.599Z,28.38
2023-02-11T06:04:36.656Z,28.35
2023-02-11T06:05:12.855Z,28.57
2023-02-11T06:05:49.924Z,28.42
2023-02-11T06:06:25.646Z,28.51
2023-02-11T06:07:01.831Z,28.33
2023-02-11T06:07:37.259Z,28.41
2023-02-11T06:08:13.594Z,28.35
2023-02-11T06:08:49.480Z,28.42
2023-02-11T06:09:25.489Z,28.45
2023-02-11T06:10:01.477Z,28.38
2023-02-11T06:10:37.572Z,28.43
2023-02-11T06:11:13.424Z,28.48
2023-02-11T06:11:49.097Z,28.65
2023-02-11T06:12:24.755Z,28.44
2023-02-11T06:13:00.712Z,28.41
2023-02-11T06:13:36.422Z,28.36
2023-02-11T06:14:12.697Z,28.28
2023-02-11T06:14:48.510Z,28.40
2023-02-11T06:15:25.010Z,28.51
2023-02-11T06:16:00.705Z,28.35
2023-02-11T06:16:36.665Z,28.42
2023-02-11T06:17:15.280Z,28.47
2023-02-11T06:17:50.439Z,28.41
2023-02-11T06:18:26.734Z,28.52
2023-02-11T06:19:02.605Z,28.42
2023-02-11T06:19:38.638Z,28.33
2023-02-11T06:20:14.759Z,28.44
2023-02-11T06:20:50.949Z,28.51
2023-02-11T06:21:36.363Z,28.24
2023-02-11T06:22:17.527Z,28.39
2023-02-11T06:22:53.141Z,28.35
2023-02-11T06:23:30.342Z,28.38
2023-02-11T06:24:06.163Z,28.43
2023-02-11T06:25:00.267Z,28.41
2023-02-11T06:25:37.047Z,28.39
2023-02-11T06:26:12.840Z,28.51
2023-02-11T06:26:48.408Z,28.43
2023-02-11T06:27:24.331Z,28.43
2023-02-11T06:27:59.715Z,28.49
2023-02-11T06:28:35.800Z,28.43
2023-02-11T06:29:11.686Z,28.22
2023-02-11T06:29:47.972Z,28.32
2023-02-11T06:30:24.011Z,28.28
2023-02-11T06:31:00.176Z,28.56
2023-02-11T06:31:36.173Z,28.49
2023-02-11T06:32:33.617Z,28.48
2023-02-11T06:33:07.180Z,28.26
2023-02-11T06:33:42.537Z,28.47
2023-02-11T06:34:18.733Z,28.38
2023-02-11T06:34:54.328Z,28.26
2023-02-11T06:35:30.479Z,28.49
2023-02-11T06:36:06.619Z,28.57
2023-02-11T06:36:42.484Z,28.45
2023-02-11T06:37:18.534Z,28.34
2023-02-11T06:37:54.421Z,28.29
2023-02-11T06:38:30.107Z,28.52
2023-02-11T06:39:05.867Z,28.44
2023-02-11T06:39:42.340Z,28.53
2023-02-11T06:40:17.831Z,28.51
2023-02-11T06:40:53.862Z,28.40
2023-02-11T06:41:29.792Z,28.35
2023-02-11T06:42:07.957Z,28.45
2023-02-11T06:42:43.041Z,28.55
2023-02-11T06:43:19.418Z,28.30
2023-02-11T06:43:55.179Z,28.55
2023-02-11T06:44:30.585Z,28.31
2023-02-11T06:45:07.214Z,28.50
2023-02-11T06:45:43.179Z,28.51
2023-02-11T06:46:19.170Z,28.36
2023-02-11T06:46:55.284Z,28.51
2023-02-11T06:47:31.192Z,28.32
2023-02-11T06:48:07.639Z,28.45
2023-02-11T06:48:45.057Z,28.56
2023-02-11T06:49:19.886Z,28.41
2023-02-11T06:49:55.562Z,28.51
2023-02-11T06:50:31.192Z,28.47
2023-02-11T06:51:07.483Z,28.40
2023-02-11T06:51:43.518Z,28.49
2023-02-11T06:52:18.991Z,28.40
2023-02-11T06:52:54.321Z,28.45
2023-02-11T06:53:30.423Z,28.55
2023-02-11T06:54:07.066Z,28.41
2023-02-11T06:54:43.272Z,28.40
2023-02-11T06:55:19.355Z,28.47
2023-02-11T06:55:54.801Z,28.43
2023-02-11T06:56:31.016Z,28.46
2023-02-11T06:57:06.907Z,28.41
2023-02-11T06:57:42.428Z,28.49
2023-02-11T06:58:18.092Z,28.51
2023-02-11T06:58:54.198Z,28.55
2023-02-11T06:59:29.977Z,28.49
2023-02-11T07:00:06.441Z,28.46
2023-02-11T07:00:42.532Z,28.43
2023-02-11T07:01:18.796Z,28.32
2023-02-11T07:01:54.872Z,28.36
2023-02-11T07:02:30.572Z,28.47
2023-02-11T07:03:06.303Z,28.49
2023-02-11T07:03:42.218Z,28.41
2023-02-11T07:04:18.014Z,28.40
2023-02-11T07:04:54.197Z,28.46
2023-02-11T07:05:30.217Z,28.49
2023-02-11T07:06:07.090Z,28.46
2023-02-11T07:06:42.694Z,28.40
2023-02-11T07:07:18.937Z,28.48
2023-02-11T07:07:54.513Z,28.40
2023-02-11T07:08:30.009Z,28.41
2023-02-11T07:09:05.584Z,28.50
2023-02-11T07:09:42.151Z,28.63
2023-02-11T07:10:18.069Z,28.58
2023-02-11T07:10:54.038Z,28.42
2023-02-11T07:11:29.848Z,28.51
2023-02-11T07:12:05.851Z,28.38
2023-02-11T07:12:41.760Z,28.31
2023-02-11T07:13:17.798Z,28.45
2023-02-11T07:13:53.093Z,28.51
2023-02-11T07:14:29.033Z,28.49
2023-02-11T07:15:05.925Z,28.47
2023-02-11T07:15:41.912Z,28.48
2023-02-11T07:16:18.039Z,28.47
2023-02-11T07:16:54.178Z,28.46
2023-02-11T07:17:30.124Z,28.57
2023-02-11T07:18:06.449Z,28.50
2023-02-11T07:18:41.892Z,28.39
2023-02-11T07:19:17.398Z,28.51
2023-02-11T07:19:53.404Z,28.51
2023-02-11T07:20:29.367Z,28.49
2023-02-11T07:21:04.986Z,28.56
2023-02-11T07:21:40.973Z,28.51
2023-02-11T07:22:16.978Z,28.48
2023-02-11T07:22:53.700Z,28.50
2023-02-11T07:23:29.610Z,28.50
2023-02-11T07:24:05.572Z,28.39
2023-02-11T07:24:41.296Z,28.46
2023-02-11T07:25:16.593Z,28.54
2023-02-11T07:25:53.007Z,28.51
2023-02-11T07:26:28.841Z,28.53
2023-02-11T07:27:04.722Z,28.49
2023-02-11T07:27:40.695Z,28.47
2023-02-11T07:28:16.490Z,28.55
2023-02-11T07:28:52.402Z,28.49
2023-02-11T07:29:28.302Z,28.56
2023-02-11T07:30:06.980Z,28.38
2023-02-11T07:30:42.382Z,28.42
2023-02-11T07:31:18.757Z,28.49
2023-02-11T07:31:54.720Z,28.51
2023-02-11T07:32:30.375Z,28.41
2023-02-11T07:33:06.581Z,28.63
2023-02-11T07:33:42.664Z,28.49
2023-02-11T07:34:18.170Z,28.56
2023-02-11T07:34:54.027Z,28.58
2023-02-11T07:35:29.360Z,28.54
2023-02-11T07:36:05.582Z,28.56
2023-02-11T07:36:42.016Z,28.65
2023-02-11T07:37:18.093Z,28.51
2023-02-11T07:37:53.803Z,28.61
2023-02-11T07:38:30.061Z,28.57
2023-02-11T07:39:05.997Z,28.50
2023-02-11T07:39:41.811Z,28.50
2023-02-11T07:40:17.453Z,28.54
2023-02-11T07:40:52.681Z,28.47
2023-02-11T07:41:28.957Z,28.54
2023-02-11T07:42:04.916Z,28.47
2023-02-11T07:42:41.042Z,28.67
2023-02-11T07:43:17.275Z,28.51
2023-02-11T07:43:53.627Z,28.56
2023-02-11T07:44:29.781Z,28.55
2023-02-11T07:45:05.869Z,28.49